sensor_id;sensor_type;location;lat;lon;timestamp;pressure;altitude;pressure_sealevel;temperature;humidity
30081;BME280;16902;50.816;12.828;2023-01-08T00:01:20;97226.31;;;1.00;100.00
30081;BME280;16902;50.816;12.828;2023-01-08T00:06:22;97219.81;;;0.96;100.00
30081;BME280;16902;50.816;12.828;2023-01-08T00:11:23;97206.22;;;0.96;100.00
30081;BME280;16902;50.816;12.828;2023-01-08T00:16:25;97194.59;;;1.01;100.00
30081;BME280;16902;50.816;12.828;2023-01-08T00:21:27;97176.81;;;1.00;100.00
30081;BME280;16902;50.816;12.828;2023-01-08T00:26:29;97181.38;;;0.96;100.00
30081;BME280;16902;50.816;12.828;2023-01-08T00:31:31;97160.75;;;0.79;100.00
30081;BME280;16902;50.816;12.828;2023-01-08T00:36:33;97141.59;;;0.63;100.00
30081;BME280;16902;50.816;12.828;2023-01-08T00:41:34;97133.63;;;0.66;100.00
30081;BME280;16902;50.816;12.828;2023-01-08T00:46:36;97133.06;;;0.63;100.00
30081;BME280;16902;50.816;12.828;2023-01-08T00:51:38;97136.16;;;0.57;100.00
30081;BME280;16902;50.816;12.828;2023-01-08T00:56:39;97148.03;;;0.58;100.00
30081;BME280;16902;50.816;12.828;2023-01-08T01:01:41;97129.25;;;0.38;100.00
30081;BME280;16902;50.816;12.828;2023-01-08T01:06:43;97139.78;;;0.35;100.00
30081;BME280;16902;50.816;12.828;2023-01-08T01:11:45;97136.63;;;0.21;100.00
30081;BME280;16902;50.816;12.828;2023-01-08T01:16:46;97132.06;;;0.15;100.00
30081;BME280;16902;50.816;12.828;2023-01-08T01:21:49;97140.13;;;0.11;100.00
30081;BME280;16902;50.816;12.828;2023-01-08T01:26:50;97139.00;;;0.04;100.00
30081;BME280;16902;50.816;12.828;2023-01-08T01:31:52;97132.50;;;-0.01;100.00
30081;BME280;16902;50.816;12.828;2023-01-08T01:36:54;97127.66;;;-0.04;100.00
30081;BME280;16902;50.816;12.828;2023-01-08T01:41:55;97138.72;;;-0.03;100.00
30081;BME280;16902;50.816;12.828;2023-01-08T01:46:58;97133.28;;;-0.10;100.00
30081;BME280;16902;50.816;12.828;2023-01-08T01:52:02;97125.56;;;-0.19;100.00
30081;BME280;16902;50.816;12.828;2023-01-08T01:57:06;97131.75;;;-0.22;100.00
30081;BME280;16902;50.816;12.828;2023-01-08T02:02:08;97114.13;;;-0.15;100.00
30081;BME280;16902;50.816;12.828;2023-01-08T02:07:15;97119.22;;;-0.25;100.00
30081;BME280;16902;50.816;12.828;2023-01-08T02:12:39;97120.31;;;-0.28;100.00
30081;BME280;16902;50.816;12.828;2023-01-08T02:17:49;97117.59;;;-0.26;100.00
30081;BME280;16902;50.816;12.828;2023-01-08T02:28:05;97102.97;;;-0.24;100.00
30081;BME280;16902;50.816;12.828;2023-01-08T02:33:10;97095.25;;;-0.34;100.00
30081;BME280;16902;50.816;12.828;2023-01-08T02:38:13;97075.78;;;-0.46;100.00
30081;BME280;16902;50.816;12.828;2023-01-08T02:43:22;97087.47;;;-0.53;100.00
30081;BME280;16902;50.816;12.828;2023-01-08T02:48:46;97093.44;;;-0.43;100.00
30081;BME280;16902;50.816;12.828;2023-01-08T02:53:50;97083.66;;;-0.38;100.00
30081;BME280;16902;50.816;12.828;2023-01-08T02:58:55;97082.31;;;-0.32;100.00
30081;BME280;16902;50.816;12.828;2023-01-08T03:04:02;97070.34;;;-0.32;100.00
30081;BME280;16902;50.816;12.828;2023-01-08T03:09:05;97063.78;;;-0.15;100.00
30081;BME280;16902;50.816;12.828;2023-01-08T03:14:11;97050.97;;;0.25;100.00
30081;BME280;16902;50.816;12.828;2023-01-08T03:19:25;97055.72;;;0.49;100.00
30081;BME280;16902;50.816;12.828;2023-01-08T03:24:32;97049.22;;;0.74;100.00
30081;BME280;16902;50.816;12.828;2023-01-08T03:29:36;97037.78;;;0.88;100.00
30081;BME280;16902;50.816;12.828;2023-01-08T03:34:41;97030.56;;;1.01;100.00
30081;BME280;16902;50.816;12.828;2023-01-08T03:39:52;97031.81;;;0.97;100.00
30081;BME280;16902;50.816;12.828;2023-01-08T03:44:58;97025.88;;;0.97;100.00
30081;BME280;16902;50.816;12.828;2023-01-08T03:50:01;97025.19;;;0.95;100.00
30081;BME280;16902;50.816;12.828;2023-01-08T03:55:04;97027.91;;;0.93;100.00
30081;BME280;16902;50.816;12.828;2023-01-08T04:00:06;97019.53;;;0.91;100.00
30081;BME280;16902;50.816;12.828;2023-01-08T04:05:09;97026.34;;;0.63;100.00
30081;BME280;16902;50.816;12.828;2023-01-08T04:10:10;97036.16;;;0.39;100.00
30081;BME280;16902;50.816;12.828;2023-01-08T04:15:12;97035.47;;;0.27;100.00
30081;BME280;16902;50.816;12.828;2023-01-08T04:20:14;97036.66;;;0.23;100.00
30081;BME280;16902;50.816;12.828;2023-01-08T04:25:15;97040.97;;;0.22;100.00
30081;BME280;16902;50.816;12.828;2023-01-08T04:30:17;97033.16;;;0.34;100.00
30081;BME280;16902;50.816;12.828;2023-01-08T04:35:19;97032.91;;;0.46;100.00
30081;BME280;16902;50.816;12.828;2023-01-08T04:40:20;97019.97;;;0.48;100.00
30081;BME280;16902;50.816;12.828;2023-01-08T04:45:22;97039.81;;;0.65;100.00
30081;BME280;16902;50.816;12.828;2023-01-08T04:50:25;97039.25;;;0.71;100.00
30081;BME280;16902;50.816;12.828;2023-01-08T04:55:26;97028.88;;;0.73;100.00
30081;BME280;16902;50.816;12.828;2023-01-08T05:00:28;97028.75;;;0.65;100.00
30081;BME280;16902;50.816;12.828;2023-01-08T05:05:30;97016.19;;;0.62;100.00
30081;BME280;16902;50.816;12.828;2023-01-08T05:10:31;97006.09;;;0.60;100.00
30081;BME280;16902;50.816;12.828;2023-01-08T05:15:33;97004.47;;;0.69;100.00
30081;BME280;16902;50.816;12.828;2023-01-08T05:20:35;96989.59;;;0.82;100.00
30081;BME280;16902;50.816;12.828;2023-01-08T05:25:36;96981.75;;;1.03;100.00
30081;BME280;16902;50.816;12.828;2023-01-08T05:30:38;96981.72;;;1.13;100.00
30081;BME280;16902;50.816;12.828;2023-01-08T05:35:39;96973.22;;;1.22;100.00
30081;BME280;16902;50.816;12.828;2023-01-08T05:40:41;96977.34;;;1.33;100.00
30081;BME280;16902;50.816;12.828;2023-01-08T05:45:43;96969.88;;;1.39;100.00
30081;BME280;16902;50.816;12.828;2023-01-08T05:50:47;96974.59;;;1.44;100.00
30081;BME280;16902;50.816;12.828;2023-01-08T05:55:49;96976.41;;;1.89;100.00
30081;BME280;16902;50.816;12.828;2023-01-08T06:00:51;96968.69;;;1.89;100.00
30081;BME280;16902;50.816;12.828;2023-01-08T06:05:57;96981.81;;;1.86;100.00
30081;BME280;16902;50.816;12.828;2023-01-08T06:10:59;96976.16;;;1.82;100.00
30081;BME280;16902;50.816;12.828;2023-01-08T06:16:01;96990.84;;;1.90;100.00
30081;BME280;16902;50.816;12.828;2023-01-08T06:21:03;96982.09;;;1.83;100.00
30081;BME280;16902;50.816;12.828;2023-01-08T06:26:06;96992.72;;;1.70;100.00
30081;BME280;16902;50.816;12.828;2023-01-08T06:31:07;96994.16;;;1.72;100.00
30081;BME280;16902;50.816;12.828;2023-01-08T06:36:09;97004.16;;;1.75;100.00
30081;BME280;16902;50.816;12.828;2023-01-08T06:41:11;97003.00;;;1.88;100.00
30081;BME280;16902;50.816;12.828;2023-01-08T06:46:12;97006.41;;;2.06;100.00
30081;BME280;16902;50.816;12.828;2023-01-08T06:51:15;97002.38;;;2.21;100.00
30081;BME280;16902;50.816;12.828;2023-01-08T06:56:16;97001.22;;;2.34;100.00
30081;BME280;16902;50.816;12.828;2023-01-08T07:01:18;97006.13;;;2.45;100.00
30081;BME280;16902;50.816;12.828;2023-01-08T07:06:21;97007.75;;;2.64;100.00
30081;BME280;16902;50.816;12.828;2023-01-08T07:11:23;97004.84;;;2.84;100.00
30081;BME280;16902;50.816;12.828;2023-01-08T07:16:25;97013.16;;;3.04;100.00
30081;BME280;16902;50.816;12.828;2023-01-08T07:21:26;96995.91;;;3.15;100.00
30081;BME280;16902;50.816;12.828;2023-01-08T07:26:28;96991.41;;;3.17;100.00
30081;BME280;16902;50.816;12.828;2023-01-08T07:31:29;96989.34;;;3.28;100.00
30081;BME280;16902;50.816;12.828;2023-01-08T07:36:31;96991.34;;;3.34;100.00
30081;BME280;16902;50.816;12.828;2023-01-08T07:41:33;96977.00;;;3.32;100.00
30081;BME280;16902;50.816;12.828;2023-01-08T07:46:35;96967.97;;;3.28;100.00
30081;BME280;16902;50.816;12.828;2023-01-08T07:51:36;96953.56;;;3.35;100.00
30081;BME280;16902;50.816;12.828;2023-01-08T07:56:38;96953.22;;;3.38;100.00
30081;BME280;16902;50.816;12.828;2023-01-08T08:01:40;96938.88;;;3.27;100.00
30081;BME280;16902;50.816;12.828;2023-01-08T08:06:41;96944.41;;;3.41;100.00
30081;BME280;16902;50.816;12.828;2023-01-08T08:11:43;96945.75;;;3.61;100.00
30081;BME280;16902;50.816;12.828;2023-01-08T08:16:44;96941.66;;;3.84;100.00
30081;BME280;16902;50.816;12.828;2023-01-08T08:21:46;96938.94;;;4.10;100.00
30081;BME280;16902;50.816;12.828;2023-01-08T08:26:49;96929.50;;;4.27;100.00
30081;BME280;16902;50.816;12.828;2023-01-08T08:31:50;96939.31;;;4.40;100.00
30081;BME280;16902;50.816;12.828;2023-01-08T08:36:52;96930.28;;;4.60;100.00
30081;BME280;16902;50.816;12.828;2023-01-08T08:41:53;96918.97;;;4.78;100.00
30081;BME280;16902;50.816;12.828;2023-01-08T08:46:55;96913.94;;;4.93;100.00
30081;BME280;16902;50.816;12.828;2023-01-08T08:51:57;96910.72;;;4.99;100.00
30081;BME280;16902;50.816;12.828;2023-01-08T08:56:58;96910.22;;;5.03;100.00
30081;BME280;16902;50.816;12.828;2023-01-08T09:02:03;96910.50;;;5.16;100.00
30081;BME280;16902;50.816;12.828;2023-01-08T09:07:05;96899.19;;;5.26;100.00
30081;BME280;16902;50.816;12.828;2023-01-08T09:12:06;96897.59;;;5.56;100.00
30081;BME280;16902;50.816;12.828;2023-01-08T09:17:08;96909.69;;;5.86;100.00
30081;BME280;16902;50.816;12.828;2023-01-08T09:22:10;96909.84;;;6.16;100.00
30081;BME280;16902;50.816;12.828;2023-01-08T09:27:12;96918.50;;;6.23;100.00
30081;BME280;16902;50.816;12.828;2023-01-08T09:32:15;96938.69;;;6.28;100.00
30081;BME280;16902;50.816;12.828;2023-01-08T09:37:16;96939.31;;;6.30;100.00
30081;BME280;16902;50.816;12.828;2023-01-08T09:42:21;96928.34;;;6.28;100.00
30081;BME280;16902;50.816;12.828;2023-01-08T09:47:35;96923.34;;;6.26;100.00
30081;BME280;16902;50.816;12.828;2023-01-08T09:52:39;96915.06;;;6.54;100.00
30081;BME280;16902;50.816;12.828;2023-01-08T09:57:44;96923.78;;;7.05;100.00
30081;BME280;16902;50.816;12.828;2023-01-08T10:02:46;96938.41;;;7.42;100.00
30081;BME280;16902;50.816;12.828;2023-01-08T10:07:49;96928.47;;;7.76;100.00
30081;BME280;16902;50.816;12.828;2023-01-08T10:12:51;96915.34;;;7.98;100.00
30081;BME280;16902;50.816;12.828;2023-01-08T10:17:55;96905.09;;;8.12;100.00
30081;BME280;16902;50.816;12.828;2023-01-08T10:23:27;96895.84;;;8.24;100.00
30081;BME280;16902;50.816;12.828;2023-01-08T10:28:32;96889.69;;;8.25;100.00
30081;BME280;16902;50.816;12.828;2023-01-08T10:33:40;96885.13;;;8.27;100.00
30081;BME280;16902;50.816;12.828;2023-01-08T10:43:59;96880.09;;;8.25;100.00
30081;BME280;16902;50.816;12.828;2023-01-08T10:49:04;96886.09;;;8.26;100.00
30081;BME280;16902;50.816;12.828;2023-01-08T10:54:19;96880.09;;;8.25;100.00
30081;BME280;16902;50.816;12.828;2023-01-08T10:59:24;96896.69;;;8.31;100.00
30081;BME280;16902;50.816;12.828;2023-01-08T11:04:30;96873.56;;;8.30;100.00
30081;BME280;16902;50.816;12.828;2023-01-08T11:09:44;96869.88;;;8.39;100.00
30081;BME280;16902;50.816;12.828;2023-01-08T11:14:46;96867.47;;;8.37;100.00
30081;BME280;16902;50.816;12.828;2023-01-08T11:19:48;96853.53;;;8.38;100.00
30081;BME280;16902;50.816;12.828;2023-01-08T11:24:51;96853.25;;;8.33;100.00
30081;BME280;16902;50.816;12.828;2023-01-08T11:30:01;96844.94;;;8.38;100.00
30081;BME280;16902;50.816;12.828;2023-01-08T11:35:27;96842.34;;;8.38;100.00
30081;BME280;16902;50.816;12.828;2023-01-08T11:40:50;96832.00;;;8.44;100.00
30081;BME280;16902;50.816;12.828;2023-01-08T11:52:40;96813.16;;;8.57;100.00
30081;BME280;16902;50.816;12.828;2023-01-08T11:57:53;96798.97;;;8.60;100.00
30081;BME280;16902;50.816;12.828;2023-01-08T12:02:59;96797.63;;;8.64;100.00
30081;BME280;16902;50.816;12.828;2023-01-08T12:34:37;96791.13;;;8.81;100.00
30081;BME280;16902;50.816;12.828;2023-01-08T12:45:19;96795.00;;;8.64;100.00
30081;BME280;16902;50.816;12.828;2023-01-08T13:06:33;96752.50;;;8.65;100.00
30081;BME280;16902;50.816;12.828;2023-01-08T13:11:35;96752.91;;;8.62;100.00
30081;BME280;16902;50.816;12.828;2023-01-08T13:16:40;96735.31;;;8.57;100.00
30081;BME280;16902;50.816;12.828;2023-01-08T13:21:53;96743.69;;;8.53;100.00
30081;BME280;16902;50.816;12.828;2023-01-08T13:26:56;96746.03;;;8.47;100.00
30081;BME280;16902;50.816;12.828;2023-01-08T13:31:58;96736.66;;;8.46;100.00
30081;BME280;16902;50.816;12.828;2023-01-08T13:36:59;96721.91;;;8.47;100.00
30081;BME280;16902;50.816;12.828;2023-01-08T13:42:18;96719.88;;;8.42;100.00
30081;BME280;16902;50.816;12.828;2023-01-08T13:52:46;96711.88;;;8.37;100.00
30081;BME280;16902;50.816;12.828;2023-01-08T13:57:57;96714.47;;;8.37;100.00
30081;BME280;16902;50.816;12.828;2023-01-08T14:03:00;96707.03;;;8.34;100.00
30081;BME280;16902;50.816;12.828;2023-01-08T14:08:01;96709.38;;;8.22;100.00
30081;BME280;16902;50.816;12.828;2023-01-08T14:13:07;96691.72;;;8.11;100.00
30081;BME280;16902;50.816;12.828;2023-01-08T14:18:11;96703.88;;;8.11;100.00
30081;BME280;16902;50.816;12.828;2023-01-08T14:23:21;96710.88;;;8.10;100.00
30081;BME280;16902;50.816;12.828;2023-01-08T14:28:24;96706.38;;;7.97;100.00
30081;BME280;16902;50.816;12.828;2023-01-08T14:33:33;96716.94;;;7.96;100.00
30081;BME280;16902;50.816;12.828;2023-01-08T14:38:36;96710.19;;;7.95;100.00
30081;BME280;16902;50.816;12.828;2023-01-08T14:43:43;96726.66;;;7.87;100.00
30081;BME280;16902;50.816;12.828;2023-01-08T14:48:46;96728.13;;;7.96;100.00
30081;BME280;16902;50.816;12.828;2023-01-08T14:58:58;96731.09;;;7.93;100.00
30081;BME280;16902;50.816;12.828;2023-01-08T15:04:17;96735.31;;;7.73;100.00
30081;BME280;16902;50.816;12.828;2023-01-08T15:09:26;96727.66;;;7.86;100.00
30081;BME280;16902;50.816;12.828;2023-01-08T15:14:30;96725.56;;;7.75;100.00
30081;BME280;16902;50.816;12.828;2023-01-08T15:19:38;96724.53;;;7.69;100.00
30081;BME280;16902;50.816;12.828;2023-01-08T15:24:40;96718.03;;;7.59;100.00
30081;BME280;16902;50.816;12.828;2023-01-08T15:29:49;96720.16;;;7.48;100.00
30081;BME280;16902;50.816;12.828;2023-01-08T15:34:51;96698.31;;;7.58;100.00
30081;BME280;16902;50.816;12.828;2023-01-08T15:39:53;96702.94;;;7.62;100.00
30081;BME280;16902;50.816;12.828;2023-01-08T15:44:54;96699.91;;;7.59;100.00
30081;BME280;16902;50.816;12.828;2023-01-08T15:49:56;96690.94;;;7.55;100.00
30081;BME280;16902;50.816;12.828;2023-01-08T15:54:58;96699.69;;;7.54;100.00
30081;BME280;16902;50.816;12.828;2023-01-08T16:00:01;96700.06;;;7.51;100.00
30081;BME280;16902;50.816;12.828;2023-01-08T16:05:05;96705.06;;;7.52;100.00
30081;BME280;16902;50.816;12.828;2023-01-08T16:10:09;96691.34;;;7.58;100.00
30081;BME280;16902;50.816;12.828;2023-01-08T16:15:12;96684.88;;;7.47;100.00
30081;BME280;16902;50.816;12.828;2023-01-08T16:20:14;96675.72;;;7.45;100.00
30081;BME280;16902;50.816;12.828;2023-01-08T16:25:16;96688.34;;;7.55;100.00
30081;BME280;16902;50.816;12.828;2023-01-08T16:30:17;96702.91;;;7.56;100.00
30081;BME280;16902;50.816;12.828;2023-01-08T16:35:20;96698.41;;;7.64;100.00
30081;BME280;16902;50.816;12.828;2023-01-08T16:40:22;96698.63;;;7.69;100.00
30081;BME280;16902;50.816;12.828;2023-01-08T16:45:23;96681.00;;;7.58;100.00
30081;BME280;16902;50.816;12.828;2023-01-08T16:50:25;96680.06;;;7.66;100.00
30081;BME280;16902;50.816;12.828;2023-01-08T16:55:27;96680.66;;;7.68;100.00
30081;BME280;16902;50.816;12.828;2023-01-08T17:00:28;96672.38;;;7.51;100.00
30081;BME280;16902;50.816;12.828;2023-01-08T17:05:30;96662.09;;;7.36;100.00
30081;BME280;16902;50.816;12.828;2023-01-08T17:10:32;96650.75;;;7.37;100.00
30081;BME280;16902;50.816;12.828;2023-01-08T17:15:38;96639.09;;;7.27;100.00
30081;BME280;16902;50.816;12.828;2023-01-08T17:20:40;96625.97;;;7.28;100.00
30081;BME280;16902;50.816;12.828;2023-01-08T17:25:41;96611.44;;;7.27;100.00
30081;BME280;16902;50.816;12.828;2023-01-08T17:30:43;96610.94;;;7.17;100.00
30081;BME280;16902;50.816;12.828;2023-01-08T17:35:46;96598.56;;;7.12;100.00
30081;BME280;16902;50.816;12.828;2023-01-08T17:40:48;96605.16;;;7.15;100.00
30081;BME280;16902;50.816;12.828;2023-01-08T17:45:50;96593.03;;;6.94;100.00
30081;BME280;16902;50.816;12.828;2023-01-08T17:50:51;96583.50;;;6.73;100.00
30081;BME280;16902;50.816;12.828;2023-01-08T17:55:53;96581.34;;;6.40;100.00
30081;BME280;16902;50.816;12.828;2023-01-08T18:00:55;96585.00;;;5.95;100.00
30081;BME280;16902;50.816;12.828;2023-01-08T18:05:56;96584.53;;;5.62;100.00
30081;BME280;16902;50.816;12.828;2023-01-08T18:11:02;96591.13;;;5.27;100.00
30081;BME280;16902;50.816;12.828;2023-01-08T18:16:10;96590.72;;;5.00;100.00
30081;BME280;16902;50.816;12.828;2023-01-08T18:21:12;96583.25;;;4.82;100.00
30081;BME280;16902;50.816;12.828;2023-01-08T18:26:15;96568.72;;;4.67;100.00
30081;BME280;16902;50.816;12.828;2023-01-08T18:31:17;96559.38;;;4.66;100.00
30081;BME280;16902;50.816;12.828;2023-01-08T18:36:20;96566.47;;;4.63;100.00
30081;BME280;16902;50.816;12.828;2023-01-08T18:41:22;96566.19;;;4.58;100.00
30081;BME280;16902;50.816;12.828;2023-01-08T18:46:42;96554.22;;;4.66;100.00
30081;BME280;16902;50.816;12.828;2023-01-08T18:51:47;96569.13;;;5.16;100.00
30081;BME280;16902;50.816;12.828;2023-01-08T18:56:48;96569.63;;;5.34;100.00
30081;BME280;16902;50.816;12.828;2023-01-08T19:01:51;96565.25;;;5.35;100.00
30081;BME280;16902;50.816;12.828;2023-01-08T19:06:53;96560.16;;;5.27;100.00
30081;BME280;16902;50.816;12.828;2023-01-08T19:11:55;96548.63;;;5.23;100.00
30081;BME280;16902;50.816;12.828;2023-01-08T19:16:56;96536.94;;;5.27;100.00
30081;BME280;16902;50.816;12.828;2023-01-08T19:21:58;96531.25;;;5.31;100.00
30081;BME280;16902;50.816;12.828;2023-01-08T19:27:00;96530.38;;;5.39;100.00
30081;BME280;16902;50.816;12.828;2023-01-08T19:32:02;96524.50;;;5.30;100.00
30081;BME280;16902;50.816;12.828;2023-01-08T19:37:04;96523.94;;;5.20;100.00
30081;BME280;16902;50.816;12.828;2023-01-08T19:42:05;96513.09;;;5.10;100.00
30081;BME280;16902;50.816;12.828;2023-01-08T19:47:26;96496.25;;;4.99;100.00
30081;BME280;16902;50.816;12.828;2023-01-08T19:52:28;96488.94;;;4.88;100.00
30081;BME280;16902;50.816;12.828;2023-01-08T19:57:30;96479.50;;;4.80;100.00
30081;BME280;16902;50.816;12.828;2023-01-08T20:02:32;96473.47;;;4.88;100.00
30081;BME280;16902;50.816;12.828;2023-01-08T20:07:34;96461.56;;;4.87;100.00
30081;BME280;16902;50.816;12.828;2023-01-08T20:12:37;96467.88;;;4.84;100.00
30081;BME280;16902;50.816;12.828;2023-01-08T20:17:39;96471.00;;;5.09;100.00
30081;BME280;16902;50.816;12.828;2023-01-08T20:22:43;96462.56;;;5.30;100.00
30081;BME280;16902;50.816;12.828;2023-01-08T20:27:45;96452.69;;;5.49;100.00
30081;BME280;16902;50.816;12.828;2023-01-08T20:32:46;96467.34;;;5.63;100.00
30081;BME280;16902;50.816;12.828;2023-01-08T20:37:48;96467.13;;;5.79;100.00
30081;BME280;16902;50.816;12.828;2023-01-08T20:42:50;96472.78;;;5.68;100.00
30081;BME280;16902;50.816;12.828;2023-01-08T20:47:52;96463.88;;;5.41;100.00
30081;BME280;16902;50.816;12.828;2023-01-08T20:52:54;96453.84;;;5.02;100.00
30081;BME280;16902;50.816;12.828;2023-01-08T20:57:55;96448.41;;;4.59;100.00
30081;BME280;16902;50.816;12.828;2023-01-08T21:02:58;96441.31;;;4.23;100.00
30081;BME280;16902;50.816;12.828;2023-01-08T21:08:00;96443.75;;;3.94;100.00
30081;BME280;16902;50.816;12.828;2023-01-08T21:13:02;96443.91;;;3.69;100.00
30081;BME280;16902;50.816;12.828;2023-01-08T21:18:04;96430.94;;;3.54;100.00
30081;BME280;16902;50.816;12.828;2023-01-08T21:23:05;96421.00;;;3.43;100.00
30081;BME280;16902;50.816;12.828;2023-01-08T21:28:07;96415.56;;;3.38;100.00
30081;BME280;16902;50.816;12.828;2023-01-08T21:33:09;96401.31;;;3.27;100.00
30081;BME280;16902;50.816;12.828;2023-01-08T21:38:11;96378.97;;;3.28;100.00
30081;BME280;16902;50.816;12.828;2023-01-08T21:43:13;96387.16;;;3.31;100.00
30081;BME280;16902;50.816;12.828;2023-01-08T21:48:33;96374.59;;;3.37;100.00
30081;BME280;16902;50.816;12.828;2023-01-08T21:53:35;96366.06;;;3.36;100.00
30081;BME280;16902;50.816;12.828;2023-01-08T21:58:37;96369.88;;;3.48;100.00
30081;BME280;16902;50.816;12.828;2023-01-08T22:03:39;96344.38;;;3.39;100.00
30081;BME280;16902;50.816;12.828;2023-01-08T22:08:41;96333.97;;;3.24;100.00
30081;BME280;16902;50.816;12.828;2023-01-08T22:13:43;96336.94;;;3.13;100.00
30081;BME280;16902;50.816;12.828;2023-01-08T22:18:45;96341.47;;;3.02;100.00
30081;BME280;16902;50.816;12.828;2023-01-08T22:23:47;96343.91;;;2.96;100.00
30081;BME280;16902;50.816;12.828;2023-01-08T22:28:49;96339.47;;;2.81;100.00
30081;BME280;16902;50.816;12.828;2023-01-08T22:33:54;96335.94;;;2.74;100.00
30081;BME280;16902;50.816;12.828;2023-01-08T22:38:56;96331.47;;;2.68;100.00
30081;BME280;16902;50.816;12.828;2023-01-08T22:43:58;96325.56;;;2.60;100.00
30081;BME280;16902;50.816;12.828;2023-01-08T22:49:00;96313.84;;;2.57;100.00
30081;BME280;16902;50.816;12.828;2023-01-08T22:54:02;96300.84;;;2.50;100.00
30081;BME280;16902;50.816;12.828;2023-01-08T22:59:04;96307.28;;;2.46;100.00
30081;BME280;16902;50.816;12.828;2023-01-08T23:04:06;96296.97;;;2.63;100.00
30081;BME280;16902;50.816;12.828;2023-01-08T23:09:08;96289.75;;;2.66;100.00
30081;BME280;16902;50.816;12.828;2023-01-08T23:14:13;96281.34;;;2.72;100.00
30081;BME280;16902;50.816;12.828;2023-01-08T23:19:16;96273.94;;;2.86;100.00
30081;BME280;16902;50.816;12.828;2023-01-08T23:24:18;96269.88;;;2.91;100.00
30081;BME280;16902;50.816;12.828;2023-01-08T23:29:20;96264.75;;;2.83;100.00
30081;BME280;16902;50.816;12.828;2023-01-08T23:34:23;96260.03;;;2.64;100.00
30081;BME280;16902;50.816;12.828;2023-01-08T23:39:25;96259.59;;;2.52;100.00
30081;BME280;16902;50.816;12.828;2023-01-08T23:44:28;96247.09;;;2.41;100.00
30081;BME280;16902;50.816;12.828;2023-01-08T23:49:30;96241.84;;;2.34;100.00
30081;BME280;16902;50.816;12.828;2023-01-08T23:54:32;96228.31;;;2.40;100.00
30081;BME280;16902;50.816;12.828;2023-01-08T23:59:36;96211.13;;;2.49;100.00
